Time;durP1;ratioP1;P1;durP2;ratioP2;P2;SDS_P1;SDS_P2;PMS_P1;PMS_P2;Temp;Humidity;BMP_temperature;BMP_pressure;BME280_temperature;BME280_humidity;BME280_pressure;Samples;Min_cycle;Max_cycle;Signal;HPM_P1;HPM_P2
2022/12/03 00:01:37;;;;;;;26.43;20.90;;;;;;;2.01;100.00;100432.44;5056023;28;20248;-74
2022/12/03 00:04:02;;;;;;;25.00;21.30;;;;;;;2.03;100.00;100436.78;5044895;28;20212;-73
2022/12/03 00:06:28;;;;;;;25.67;21.77;;;;;;;2.03;100.00;100430.81;5057899;28;20254;-74
2022/12/03 00:08:53;;;;;;;26.80;21.20;;;;;;;2.02;100.00;100429.97;5060091;28;20671;-74
2022/12/03 00:11:19;;;;;;;26.50;21.33;;;;;;;2.03;100.00;100428.25;5053790;28;20206;-73
2022/12/03 00:13:44;;;;;;;25.37;21.90;;;;;;;2.09;100.00;100431.84;5035800;28;20577;-75
2022/12/03 00:16:09;;;;;;;23.60;20.47;;;;;;;2.06;100.00;100424.09;5039264;28;20276;-74
2022/12/03 00:18:35;;;;;;;25.77;20.80;;;;;;;2.08;100.00;100431.81;5056957;28;20274;-74
2022/12/03 00:21:00;;;;;;;22.63;19.67;;;;;;;2.10;100.00;100435.28;5051677;28;20249;-74
2022/12/03 00:23:25;;;;;;;24.47;19.50;;;;;;;2.09;100.00;100426.75;5056560;28;20198;-74
2022/12/03 00:25:51;;;;;;;22.07;18.87;;;;;;;2.10;100.00;100433.59;5055823;28;20193;-74
2022/12/03 00:28:16;;;;;;;23.17;20.13;;;;;;;2.13;100.00;100428.56;5059393;28;20182;-74
2022/12/03 00:30:41;;;;;;;21.87;19.00;;;;;;;2.13;100.00;100428.56;5058617;28;20236;-74
2022/12/03 00:33:07;;;;;;;25.07;19.63;;;;;;;2.14;100.00;100426.84;5041147;28;20236;-75
2022/12/03 00:35:32;;;;;;;22.37;19.57;;;;;;;2.12;100.00;100426.84;5057358;28;20268;-74
2022/12/03 00:37:57;;;;;;;23.13;18.77;;;;;;;2.13;100.00;100433.66;5061127;28;20576;-75
2022/12/03 00:40:23;;;;;;;22.53;19.30;;;;;;;2.12;100.00;100424.28;5042298;28;20206;-73
2022/12/03 00:42:48;;;;;;;23.47;19.33;;;;;;;2.16;100.00;100421.81;5054853;28;20213;-75
2022/12/03 00:45:13;;;;;;;24.10;20.07;;;;;;;2.16;100.00;100429.47;5059559;28;20205;-74
2022/12/03 00:47:39;;;;;;;24.87;20.00;;;;;;;2.14;100.00;100434.53;5054858;28;20281;-74
2022/12/03 00:50:05;;;;;;;22.80;19.83;;;;;;;2.15;100.00;100418.38;5059269;28;20628;-75
2022/12/03 00:52:30;;;;;;;23.30;19.23;;;;;;;2.18;100.00;100431.25;5061340;28;20185;-74
2022/12/03 00:54:56;;;;;;;23.63;19.97;;;;;;;2.21;100.00;100435.56;5056649;28;20194;-74
2022/12/03 00:57:21;;;;;;;24.13;19.47;;;;;;;2.21;100.00;100433.88;5051118;28;20209;-75
2022/12/03 00:59:46;;;;;;;25.30;20.00;;;;;;;2.22;100.00;100427.06;5056483;28;20642;-74
2022/12/03 01:02:11;;;;;;;25.10;20.27;;;;;;;2.24;100.00;100427.97;5040676;28;20217;-74
2022/12/03 01:04:37;;;;;;;25.23;20.80;;;;;;;2.24;100.00;100435.66;5058705;28;20194;-74
2022/12/03 01:07:02;;;;;;;27.73;21.73;;;;;;;2.27;100.00;100428.06;5065085;28;20198;-74
2022/12/03 01:09:28;;;;;;;27.37;22.43;;;;;;;2.26;100.00;100429.78;5058822;28;20197;-74
2022/12/03 01:11:53;;;;;;;25.53;22.10;;;;;;;2.25;100.00;100430.59;5060844;28;20730;-75
2022/12/03 01:14:19;;;;;;;24.97;20.77;;;;;;;2.28;100.00;100429.81;5039952;28;20676;-74
2022/12/03 01:16:46;;;;;;;24.67;20.83;;;;;;;2.26;100.00;100437.44;5051996;28;20204;-75
2022/12/03 01:19:15;;;;;;;25.50;21.30;;;;;;;2.29;100.00;100434.09;5060275;28;20193;-74
2022/12/03 01:21:42;;;;;;;26.73;21.17;;;;;;;2.31;100.00;100436.69;5053939;28;20212;-74
2022/12/03 01:24:07;;;;;;;24.67;20.50;;;;;;;2.34;100.00;100432.53;5061838;28;20228;-75
2022/12/03 01:26:32;;;;;;;24.40;20.83;;;;;;;2.33;100.00;100432.47;5058977;28;20265;-74
2022/12/03 01:28:58;;;;;;;27.10;21.93;;;;;;;2.31;100.00;100437.56;5054700;28;20248;-75
2022/12/03 01:34:07;;;;;;;24.80;20.80;;;;;;;2.33;100.00;100441.03;5054799;28;20297;-74
2022/12/03 01:36:35;;;;;;;24.33;21.33;;;;;;;2.32;100.00;100433.28;5058600;28;20261;-74
2022/12/03 01:39:03;;;;;;;23.23;20.67;;;;;;;2.38;100.00;100441.13;5058143;28;20178;-74
2022/12/03 01:41:29;;;;;;;25.13;20.60;;;;;;;2.38;100.00;100443.69;5044588;28;20756;-74
2022/12/03 01:43:56;;;;;;;26.37;22.17;;;;;;;2.38;100.00;100439.44;5058035;28;20196;-75
2022/12/03 01:46:29;;;;;;;28.17;21.63;;;;;;;2.40;100.00;100442.91;5050952;28;20234;-73
2022/12/03 01:48:55;;;;;;;23.97;20.57;;;;;;;2.39;100.00;100446.28;5053900;28;20232;-74
2022/12/03 01:51:21;;;;;;;27.43;21.90;;;;;;;2.39;100.00;100445.44;5057508;28;20201;-74
2022/12/03 01:53:47;;;;;;;25.20;20.23;;;;;;;2.40;100.00;100449.72;5057920;28;20204;-74
2022/12/03 01:56:16;;;;;;;26.77;21.97;;;;;;;2.41;100.00;100449.75;5056181;28;20186;-74
2022/12/03 01:58:44;;;;;;;27.90;21.20;;;;;;;2.41;100.00;100449.75;5053973;28;20198;-74
2022/12/03 02:01:13;;;;;;;25.97;21.77;;;;;;;2.44;100.00;100456.63;5052546;28;20202;-74
2022/12/03 02:03:38;;;;;;;25.03;20.73;;;;;;;2.44;100.00;100441.28;5056255;28;20564;-74
2022/12/03 02:06:08;;;;;;;23.93;20.83;;;;;;;2.44;100.00;100439.63;5052372;28;20189;-74
2022/12/03 02:08:36;;;;;;;26.53;21.77;;;;;;;2.44;100.00;100438.72;5056832;28;20190;-75
2022/12/03 02:11:10;;;;;;;24.53;20.53;;;;;;;2.45;100.00;100440.47;5063738;28;20296;-74
2022/12/03 02:13:35;;;;;;;22.77;20.30;;;;;;;2.46;100.00;100442.19;5050806;28;20240;-73
2022/12/03 02:16:02;;;;;;;23.93;20.27;;;;;;;2.44;100.00;100444.72;5056753;28;20190;-73
2022/12/03 02:18:27;;;;;;;23.53;20.17;;;;;;;2.45;100.00;100440.47;5059950;28;20201;-74
2022/12/03 02:21:12;;;;;;;23.50;20.33;;;;;;;2.46;100.00;100443.91;5038880;28;20214;-74
2022/12/03 02:24:15;;;;;;;22.20;19.80;;;;;;;2.47;100.00;100451.59;5039178;28;20654;-75
2022/12/03 02:26:41;;;;;;;21.67;19.43;;;;;;;2.46;100.00;100444.75;5022838;28;20199;-74
2022/12/03 02:29:06;;;;;;;24.80;20.50;;;;;;;2.48;100.00;100432.88;5039857;28;20204;-74
2022/12/03 02:31:32;;;;;;;23.47;19.80;;;;;;;2.48;100.00;100434.59;5056008;28;20212;-75
2022/12/03 02:33:57;;;;;;;20.33;18.23;;;;;;;2.44;100.00;100431.94;5080521;28;20859;-75
2022/12/03 02:36:23;;;;;;;23.33;20.83;;;;;;;2.40;100.00;100439.50;5063269;28;20189;-74
2022/12/03 02:38:49;;;;;;;22.70;20.30;;;;;;;2.33;100.00;100437.59;5040477;28;20190;-75
2022/12/03 02:44:04;;;;;;;23.37;20.87;;;;;;;2.14;100.00;100434.53;5059974;28;20205;-75
2022/12/03 02:46:30;;;;;;;23.83;20.00;;;;;;;2.04;100.00;100433.41;5062271;28;20665;-74
2022/12/03 02:48:56;;;;;;;23.43;20.80;;;;;;;2.03;100.00;100431.69;5064097;28;20280;-74
2022/12/03 02:51:21;;;;;;;24.83;21.07;;;;;;;2.01;100.00;100435.00;5058918;28;20213;-74
2022/12/03 02:53:48;;;;;;;24.00;20.40;;;;;;;1.96;100.00;100428.09;5060996;28;20191;-73
2022/12/03 02:56:18;;;;;;;23.57;20.97;;;;;;;1.89;100.00;100427.88;5063117;28;20190;-75
2022/12/03 02:58:47;;;;;;;26.00;21.93;;;;;;;1.87;100.00;100424.41;5039857;28;20658;-74
2022/12/03 03:01:14;;;;;;;23.80;20.43;;;;;;;1.85;100.00;100419.25;5063939;28;20246;-73
2022/12/03 03:03:40;;;;;;;26.17;21.90;;;;;;;1.83;100.00;100420.88;5059356;28;20194;-74
2022/12/03 03:06:07;;;;;;;24.30;21.47;;;;;;;1.78;100.00;100425.00;5041931;28;20198;-74
2022/12/03 03:08:33;;;;;;;24.07;20.97;;;;;;;1.72;100.00;100425.72;5059461;28;20194;-75
2022/12/03 03:11:01;;;;;;;25.83;21.87;;;;;;;1.70;100.00;100423.91;5058783;28;20725;-74
2022/12/03 03:13:28;;;;;;;26.63;21.93;;;;;;;1.68;100.00;100417.06;5064484;28;20189;-74
2022/12/03 03:15:54;;;;;;;25.37;22.30;;;;;;;1.61;100.00;100420.28;5064848;28;20232;-74
2022/12/03 03:18:20;;;;;;;23.70;21.10;;;;;;;1.53;100.00;100419.16;5062871;28;20231;-75
2022/12/03 03:20:45;;;;;;;24.07;21.47;;;;;;;1.49;100.00;100425.88;5063114;28;20209;-73
2022/12/03 03:23:10;;;;;;;26.00;22.13;;;;;;;1.52;100.00;100428.53;5057418;28;20205;-73
2022/12/03 03:25:38;;;;;;;26.37;23.07;;;;;;;1.50;100.00;100432.72;5063964;28;20335;-73
2022/12/03 03:28:04;;;;;;;25.90;22.53;;;;;;;1.48;100.00;100431.78;5073490;28;20243;-72
2022/12/03 03:30:30;;;;;;;27.77;23.00;;;;;;;1.51;100.00;100426.78;5066468;28;20290;-72
2022/12/03 03:32:55;;;;;;;28.67;23.90;;;;;;;1.53;100.00;100421.72;5060964;28;20190;-72
2022/12/03 03:35:22;;;;;;;27.87;23.67;;;;;;;1.54;100.00;100423.44;5057890;28;20263;-72
2022/12/03 03:37:48;;;;;;;25.93;21.97;;;;;;;1.47;100.00;100421.56;5061177;28;20197;-73
2022/12/03 03:40:13;;;;;;;27.50;22.80;;;;;;;1.50;100.00;100419.09;5063930;28;20206;-72
2022/12/03 03:42:38;;;;;;;27.27;23.67;;;;;;;1.48;100.00;100418.19;5061741;28;20598;-73
2022/12/03 03:45:06;;;;;;;29.37;23.70;;;;;;;1.50;100.00;100417.41;5067317;28;20642;-73
2022/12/03 03:47:31;;;;;;;28.50;23.40;;;;;;;1.54;100.00;100414.94;5053405;28;20824;-72
2022/12/03 03:49:56;;;;;;;27.50;23.47;;;;;;;1.56;100.00;100419.28;5056018;28;20332;-73
2022/12/03 03:52:22;;;;;;;27.47;23.57;;;;;;;1.57;100.00;100408.25;5062245;28;20190;-72
2022/12/03 03:54:47;;;;;;;28.20;24.03;;;;;;;1.60;100.00;100412.56;5058261;28;20201;-72
2022/12/03 03:57:13;;;;;;;25.67;22.53;;;;;;;1.65;100.00;100416.13;5054166;28;20654;-72
2022/12/03 03:59:38;;;;;;;25.73;22.00;;;;;;;1.62;100.00;100404.16;5055558;28;20198;-74
2022/12/03 04:02:04;;;;;;;24.90;22.00;;;;;;;1.60;100.00;100413.44;5074971;28;20218;-72
2022/12/03 04:04:35;;;;;;;27.07;23.37;;;;;;;1.58;100.00;100409.13;5057942;28;20646;-73
2022/12/03 04:07:00;;;;;;;24.93;22.23;;;;;;;1.56;100.00;100408.22;5060883;28;20193;-73
2022/12/03 04:09:26;;;;;;;27.93;23.17;;;;;;;1.52;100.00;100409.78;5053405;28;20804;-72
2022/12/03 04:14:35;;;;;;;25.57;22.20;;;;;;;1.45;100.00;100406.19;5054976;28;20339;-73
2022/12/03 04:17:00;;;;;;;26.27;23.23;;;;;;;1.41;100.00;100414.59;5061484;28;20796;-73
2022/12/03 04:19:25;;;;;;;26.77;23.70;;;;;;;1.39;100.00;100410.25;5054059;28;20190;-73
2022/12/03 04:24:35;;;;;;;30.53;23.57;;;;;;;1.44;100.00;100409.56;5058707;28;20762;-71
2022/12/03 04:29:44;;;;;;;28.03;23.97;;;;;;;1.43;100.00;100405.31;5057306;28;20677;-72
2022/12/03 04:37:37;;;;;;;26.67;23.07;;;;;;;1.41;100.00;100411.16;5060393;28;20600;-74
2022/12/03 04:40:59;;;;;;;29.30;24.17;;;;;;;1.40;100.00;100409.41;5056379;28;20190;-71
2022/12/03 04:42:48;;;;;;;26.73;23.60;;;;;;;1.39;100.00;100415.34;5061521;28;20213;-73
2022/12/03 04:45:13;;;;;;;27.33;22.77;;;;;;;1.39;100.00;100405.13;5062271;28;20426;-72
2022/12/03 04:47:39;;;;;;;29.30;23.47;;;;;;;1.34;100.00;100407.56;5058466;28;20194;-73
2022/12/03 04:50:05;;;;;;;29.33;22.87;;;;;;;1.34;100.00;100408.44;5041285;28;20208;-73
2022/12/03 04:52:30;;;;;;;25.80;22.47;;;;;;;1.26;100.00;100407.31;5055482;28;20276;-70
2022/12/03 04:54:55;;;;;;;28.20;22.53;;;;;;;1.34;100.00;100416.09;5058868;28;20640;-74
2022/12/03 04:57:21;;;;;;;29.60;23.43;;;;;;;1.32;100.00;100404.09;5052667;28;20194;-74
2022/12/03 04:59:46;;;;;;;28.40;23.30;;;;;;;1.26;100.00;100403.91;5039991;28;20182;-72
2022/12/03 05:02:11;;;;;;;27.70;23.43;;;;;;;1.23;100.00;100399.56;5057644;28;20213;-74
2022/12/03 05:04:37;;;;;;;27.87;23.03;;;;;;;1.23;100.00;100397.03;5058537;28;20955;-74
2022/12/03 05:07:02;;;;;;;26.17;22.97;;;;;;;1.17;100.00;100401.94;5040998;28;20261;-74
2022/12/03 05:09:27;;;;;;;31.03;24.30;;;;;;;1.18;100.00;100403.69;5062315;28;20200;-75
2022/12/03 05:11:53;;;;;;;31.30;24.07;;;;;;;1.18;100.00;100404.53;5055492;28;20211;-74
2022/12/03 05:14:18;;;;;;;30.53;24.77;;;;;;;1.21;100.00;100393.59;5055211;28;20214;-74
2022/12/03 05:16:43;;;;;;;29.33;24.37;;;;;;;1.23;100.00;100398.72;5057497;28;20197;-73
2022/12/03 05:19:09;;;;;;;28.60;24.87;;;;;;;1.14;100.00;100389.94;5037737;28;20510;-75
2022/12/03 05:21:34;;;;;;;30.93;25.70;;;;;;;1.20;100.00;100386.75;5066651;28;20351;-73
2022/12/03 05:24:00;;;;;;;33.97;26.17;;;;;;;1.16;100.00;100385.78;5070139;28;20198;-73
2022/12/03 05:26:25;;;;;;;34.27;25.37;;;;;;;1.16;100.00;100378.13;5066270;28;20197;-73
2022/12/03 05:28:51;;;;;;;31.67;25.27;;;;;;;1.23;100.00;100371.53;5063730;28;20273;-74
2022/12/03 05:31:16;;;;;;;35.87;26.03;;;;;;;1.26;100.00;100366.53;5065306;28;20242;-73
2022/12/03 05:33:42;;;;;;;32.13;26.07;;;;;;;1.24;100.00;100367.31;5058892;28;20245;-74
2022/12/03 05:36:07;;;;;;;33.10;25.80;;;;;;;1.25;100.00;100371.59;5060090;28;20274;-73
2022/12/03 05:38:33;;;;;;;31.33;25.10;;;;;;;1.27;100.00;100372.50;5054954;28;20606;-74
2022/12/03 05:40:58;;;;;;;30.33;23.60;;;;;;;1.23;100.00;100376.63;5059496;28;20209;-75
2022/12/03 05:43:24;;;;;;;31.40;24.30;;;;;;;1.22;100.00;100380.00;5062339;28;20844;-72
2022/12/03 05:45:49;;;;;;;29.40;24.80;;;;;;;1.24;100.00;100383.47;5065216;28;20200;-75
2022/12/03 05:48:15;;;;;;;31.90;25.40;;;;;;;1.27;100.00;100377.59;5055194;28;20224;-74
2022/12/03 05:50:43;;;;;;;29.47;23.93;;;;;;;1.24;100.00;100370.72;5059574;28;20647;-73
2022/12/03 05:53:09;;;;;;;30.10;25.00;;;;;;;1.23;100.00;100380.88;5055625;28;20231;-74
2022/12/03 05:55:35;;;;;;;33.53;26.43;;;;;;;1.24;100.00;100373.25;5059514;28;20572;-73
2022/12/03 05:58:00;;;;;;;33.63;26.37;;;;;;;1.21;100.00;100379.13;5044940;28;20197;-74
2022/12/03 06:00:29;;;;;;;33.37;25.83;;;;;;;1.23;100.00;100383.41;5058719;28;20224;-74
2022/12/03 06:02:54;;;;;;;32.20;25.73;;;;;;;1.28;100.00;100374.25;5058221;28;20856;-73
2022/12/03 06:05:21;;;;;;;32.43;25.00;;;;;;;1.21;100.00;100386.78;5058526;28;20189;-73
2022/12/03 06:07:50;;;;;;;34.03;26.63;;;;;;;1.19;100.00;100387.56;5057139;28;20198;-74
2022/12/03 06:10:22;;;;;;;33.57;26.23;;;;;;;1.20;100.00;100377.41;5055092;28;20630;-74
2022/12/03 06:12:48;;;;;;;34.03;26.30;;;;;;;1.19;100.00;100382.47;5060831;28;20202;-73
2022/12/03 06:15:14;;;;;;;32.50;25.43;;;;;;;1.22;100.00;100374.88;5056143;28;20206;-74
2022/12/03 06:17:40;;;;;;;34.73;26.37;;;;;;;1.21;100.00;100371.50;5059392;28;20191;-74
2022/12/03 06:20:06;;;;;;;36.23;26.37;;;;;;;1.20;100.00;100379.97;5061339;28;20186;-74
2022/12/03 06:22:32;;;;;;;36.60;27.13;;;;;;;1.26;100.00;100365.66;5058825;28;20781;-74
2022/12/03 06:24:57;;;;;;;38.80;27.97;;;;;;;1.27;100.00;100367.41;5060682;28;20182;-73
2022/12/03 06:27:22;;;;;;;38.83;28.27;;;;;;;1.29;100.00;100371.72;5059089;28;20605;-74
2022/12/03 06:29:48;;;;;;;38.87;28.07;;;;;;;1.29;100.00;100373.38;5042713;28;20595;-74
2022/12/03 06:32:13;;;;;;;39.50;28.57;;;;;;;1.31;100.00;100376.84;5059936;28;20557;-74
2022/12/03 06:34:39;;;;;;;37.87;28.40;;;;;;;1.36;100.00;100376.16;5054835;28;20245;-74
2022/12/03 06:37:04;;;;;;;38.53;29.03;;;;;;;1.40;100.00;100379.69;5060728;28;20192;-74
2022/12/03 06:39:29;;;;;;;35.77;27.30;;;;;;;1.43;100.00;100387.44;5042838;28;20185;-73
2022/12/03 06:41:55;;;;;;;39.77;27.93;;;;;;;1.46;100.00;100387.50;5059752;28;20225;-75
2022/12/03 06:44:20;;;;;;;37.03;28.53;;;;;;;1.49;100.00;100389.31;5057712;28;20248;-74
2022/12/03 06:46:45;;;;;;;38.70;28.17;;;;;;;1.52;100.00;100397.03;5066618;28;20197;-75
2022/12/03 06:49:11;;;;;;;38.83;28.90;;;;;;;1.52;100.00;100385.16;5062767;28;20210;-74
2022/12/03 06:51:37;;;;;;;36.80;28.57;;;;;;;1.54;100.00;100385.19;5061771;28;20206;-73
2022/12/03 06:54:03;;;;;;;37.50;28.03;;;;;;;1.55;100.00;100383.53;5062168;28;20198;-75
2022/12/03 06:56:28;;;;;;;40.47;27.53;;;;;;;1.59;100.00;100386.19;5063935;28;20196;-73
2022/12/03 06:58:54;;;;;;;38.53;27.70;;;;;;;1.58;100.00;100398.94;5061100;28;20650;-74
2022/12/03 07:01:19;;;;;;;40.40;28.07;;;;;;;1.58;100.00;100393.81;5061134;28;20216;-73
2022/12/03 07:03:45;;;;;;;40.33;27.77;;;;;;;1.55;100.00;100407.34;5047236;28;20182;-73
2022/12/03 07:06:10;;;;;;;39.93;27.57;;;;;;;1.56;100.00;100387.81;5061492;28;20631;-74
2022/12/03 07:08:36;;;;;;;40.17;28.57;;;;;;;1.56;100.00;100387.81;5058722;28;20975;-74
2022/12/03 07:11:01;;;;;;;37.37;27.77;;;;;;;1.52;100.00;100389.38;5061342;28;20756;-73
2022/12/03 07:13:26;;;;;;;38.67;27.77;;;;;;;1.54;100.00;100392.00;5042745;28;20190;-74
2022/12/03 07:15:51;;;;;;;36.67;26.97;;;;;;;1.51;100.00;100397.88;5071164;28;20189;-73
2022/12/03 07:18:17;;;;;;;36.53;26.77;;;;;;;1.53;100.00;100403.88;5064247;28;20186;-73
2022/12/03 07:20:42;;;;;;;37.63;28.33;;;;;;;1.51;100.00;100401.28;5060160;28;20753;-73
2022/12/03 07:23:07;;;;;;;35.87;27.93;;;;;;;1.52;100.00;100397.03;5056311;28;20210;-73
2022/12/03 07:25:33;;;;;;;37.73;28.10;;;;;;;1.55;100.00;100404.78;5065575;28;20197;-74
2022/12/03 07:27:58;;;;;;;39.80;27.73;;;;;;;1.54;100.00;100407.28;5064958;28;20195;-75
2022/12/03 07:30:24;;;;;;;39.50;28.00;;;;;;;1.55;100.00;100397.13;5058236;28;20964;-73
2022/12/03 07:32:50;;;;;;;37.03;28.33;;;;;;;1.54;100.00;100387.75;5043494;28;20273;-73
2022/12/03 07:35:16;;;;;;;36.17;26.40;;;;;;;1.52;100.00;100397.91;5062331;28;20275;-74
2022/12/03 07:37:41;;;;;;;38.13;28.07;;;;;;;1.54;100.00;100397.09;5066725;28;20212;-73
2022/12/03 07:40:07;;;;;;;38.23;28.33;;;;;;;1.50;100.00;100391.03;5064905;28;20190;-74
2022/12/03 07:42:33;;;;;;;37.67;28.30;;;;;;;1.47;100.00;100391.81;5066907;28;20241;-74
2022/12/03 07:44:58;;;;;;;39.17;28.30;;;;;;;1.47;100.00;100396.06;5069105;28;20689;-73
2022/12/03 07:47:23;;;;;;;38.43;27.77;;;;;;;1.45;100.00;100398.53;5076697;28;20984;-73
2022/12/03 07:49:49;;;;;;;38.27;29.37;;;;;;;1.46;100.00;100404.53;5067049;28;20198;-74
2022/12/03 07:52:14;;;;;;;37.80;29.07;;;;;;;1.46;100.00;100399.41;5072690;28;20296;-74
2022/12/03 07:54:39;;;;;;;40.10;29.00;;;;;;;1.49;100.00;100402.06;5067291;28;20311;-74
2022/12/03 07:57:04;;;;;;;38.93;28.10;;;;;;;1.50;100.00;100402.09;5070711;28;20205;-73
2022/12/03 07:59:30;;;;;;;41.93;29.07;;;;;;;1.52;100.00;100399.59;5067060;28;20724;-73
2022/12/03 08:01:55;;;;;;;38.47;29.53;;;;;;;1.58;100.00;100404.88;5058255;28;20229;-74
2022/12/03 08:04:21;;;;;;;39.30;28.90;;;;;;;1.60;100.00;100405.78;5056402;28;20195;-73
2022/12/03 08:06:47;;;;;;;43.43;31.33;;;;;;;1.64;100.00;100401.63;5040386;28;20189;-73
2022/12/03 08:09:13;;;;;;;42.70;32.13;;;;;;;1.65;100.00;100405.91;5060253;28;20225;-73
2022/12/03 08:11:39;;;;;;;38.07;29.70;;;;;;;1.64;100.00;100389.75;5066417;28;20755;-74
2022/12/03 08:14:12;;;;;;;45.63;32.87;;;;;;;1.66;100.00;100388.09;5058609;28;20181;-74
2022/12/03 08:16:39;;;;;;;41.33;30.43;;;;;;;1.68;100.00;100381.34;5061312;28;20561;-74
2022/12/03 08:19:09;;;;;;;52.70;40.80;;;;;;;1.70;100.00;100383.09;5063574;28;20202;-73
2022/12/03 08:21:35;;;;;;;44.07;32.03;;;;;;;1.71;100.00;100382.25;5055515;28;20221;-73
2022/12/03 08:24:13;;;;;;;45.77;32.23;;;;;;;1.73;100.00;100383.19;5049796;28;20189;-73
2022/12/03 08:26:38;;;;;;;47.57;33.10;;;;;;;1.76;100.00;100373.91;5066805;28;20182;-73
2022/12/03 08:29:09;;;;;;;48.30;34.37;;;;;;;1.82;100.00;100379.22;5068889;28;20268;-74
2022/12/03 08:31:34;;;;;;;46.73;32.00;;;;;;;1.85;100.00;100377.56;5059692;28;20815;-73
2022/12/03 08:34:15;;;;;;;45.63;30.83;;;;;;;1.88;100.00;100373.41;5063357;28;20268;-74
2022/12/03 08:36:40;;;;;;;42.73;31.10;;;;;;;1.89;100.00;100370.03;5057535;28;20660;-73
2022/12/03 08:39:24;;;;;;;43.93;30.57;;;;;;;1.89;100.00;100366.63;5050702;28;20201;-75
2022/12/03 08:44:40;;;;;;;41.30;28.80;;;;;;;1.95;100.00;100377.00;5062470;28;20199;-73
2022/12/03 08:47:08;;;;;;;40.03;30.03;;;;;;;2.01;100.00;100381.41;5062301;28;21082;-73
2022/12/03 08:49:34;;;;;;;42.03;29.73;;;;;;;2.07;100.00;100379.03;5067817;28;20193;-73
2022/12/03 08:52:01;;;;;;;41.50;30.10;;;;;;;2.15;100.00;100380.09;5053619;28;20206;-73
2022/12/03 08:54:27;;;;;;;42.20;30.40;;;;;;;2.25;100.00;100393.97;5064392;28;20266;-72
2022/12/03 08:56:53;;;;;;;42.13;31.07;;;;;;;2.33;100.00;100387.38;5064200;28;20197;-73
2022/12/03 08:59:25;;;;;;;39.33;29.43;;;;;;;2.37;100.00;100384.06;5062551;28;20186;-73
2022/12/03 09:01:52;;;;;;;38.83;30.17;;;;;;;2.43;100.00;100375.69;5064439;28;20589;-72
2022/12/03 09:04:22;;;;;;;40.03;30.47;;;;;;;2.49;100.00;100367.34;5045684;28;20190;-72
2022/12/03 09:06:48;;;;;;;39.90;30.93;;;;;;;2.52;100.00;100377.63;5069545;28;20707;-72
2022/12/03 09:09:14;;;;;;;39.23;31.07;;;;;;;2.56;100.00;100380.31;5068242;28;20197;-73
2022/12/03 09:11:39;;;;;;;40.60;31.07;;;;;;;2.62;100.00;100373.59;5071449;28;20220;-72
2022/12/03 09:14:05;;;;;;;45.67;34.77;;;;;;;2.63;100.00;100378.78;5065718;28;20656;-73
2022/12/03 09:16:30;;;;;;;40.30;32.87;;;;;;;2.67;100.00;100378.00;5064516;28;20190;-74
2022/12/03 09:18:55;;;;;;;48.27;37.50;;;;;;;2.75;100.00;100383.31;5052861;28;20200;-74
2022/12/03 09:21:21;;;;;;;46.70;37.63;;;;;;;2.80;100.00;100384.28;5063944;28;20209;-74
2022/12/03 09:23:46;;;;;;;45.13;37.20;;;;;;;2.84;100.00;100382.66;5064433;28;20222;-73
2022/12/03 09:26:12;;;;;;;44.60;33.90;;;;;;;2.88;100.00;100379.38;5065822;28;20568;-73
2022/12/03 09:28:37;;;;;;;41.47;33.40;;;;;;;2.92;100.00;100378.63;5068951;28;20215;-73
2022/12/03 09:31:02;;;;;;;46.40;39.40;;;;;;;2.92;100.00;100377.72;5065728;28;20596;-74
2022/12/03 09:33:29;;;;;;;63.93;56.43;;;;;;;2.92;100.00;100378.63;5065458;28;20375;-72
2022/12/03 09:35:55;;;;;;;63.80;52.73;;;;;;;2.96;100.00;100380.41;5047161;28;20178;-73
2022/12/03 09:38:20;;;;;;;48.57;39.00;;;;;;;2.96;100.00;100382.94;5043622;28;20185;-73
2022/12/03 09:40:45;;;;;;;41.60;32.57;;;;;;;2.97;100.00;100377.00;5046831;28;20205;-74
2022/12/03 09:43:12;;;;;;;45.07;36.77;;;;;;;3.07;100.00;100379.81;5058789;28;20215;-74
2022/12/03 09:45:37;;;;;;;46.10;37.63;;;;;;;3.20;100.00;100382.66;5038911;28;21840;-75
2022/12/03 09:48:03;;;;;;;40.63;33.93;;;;;;;3.28;100.00;100375.16;5060271;28;20198;-74
2022/12/03 09:50:30;;;;;;;36.20;30.77;;;;;;;3.38;100.00;100373.66;5054908;28;20202;-73
2022/12/03 09:52:59;;;;;;;49.43;39.30;;;;;;;3.43;100.00;100384.00;5066532;28;20688;-74
2022/12/03 09:55:27;;;;;;;78.53;67.27;;;;;;;3.51;100.00;100370.53;5066423;28;20177;-74
2022/12/03 09:57:55;;;;;;;64.87;53.93;;;;;;;3.58;100.00;100356.19;5061493;28;22137;-74
2022/12/03 10:00:27;;;;;;;56.70;47.37;;;;;;;3.63;100.00;100359.72;5052181;28;20288;-74
2022/12/03 10:02:56;;;;;;;66.53;58.10;;;;;;;3.62;100.00;100341.78;5059692;28;20216;-74
2022/12/03 10:05:22;;;;;;;45.73;39.30;;;;;;;3.66;100.00;100341.84;5061185;28;20187;-74
2022/12/03 10:07:49;;;;;;;59.30;51.67;;;;;;;3.67;100.00;100332.47;5059832;28;20206;-74
2022/12/03 10:10:21;;;;;;;47.40;42.20;;;;;;;3.74;100.00;100344.56;5058237;28;21055;-73
2022/12/03 10:12:48;;;;;;;43.43;37.30;;;;;;;3.84;100.00;100330.25;5045439;28;20174;-73
2022/12/03 10:15:16;;;;;;;38.53;33.47;;;;;;;3.89;100.00;100333.75;5056546;28;20189;-74
2022/12/03 10:17:42;;;;;;;40.03;33.83;;;;;;;3.88;100.00;100342.25;5057696;28;20239;-75
2022/12/03 10:20:14;;;;;;;49.53;41.80;;;;;;;3.84;100.00;100337.06;5059087;28;21033;-74
2022/12/03 10:22:39;;;;;;;50.83;43.23;;;;;;;3.89;100.00;100336.31;5060125;28;20206;-74
2022/12/03 10:25:09;;;;;;;45.80;38.10;;;;;;;3.85;100.00;100332.00;5054368;28;20200;-74
2022/12/03 10:27:34;;;;;;;52.30;43.53;;;;;;;3.87;100.00;100335.41;5053939;28;20722;-74
2022/12/03 10:30:01;;;;;;;48.13;40.93;;;;;;;3.84;100.00;100335.38;5053010;28;20192;-74
2022/12/03 10:32:45;;;;;;;46.53;38.57;;;;;;;3.88;100.00;100337.13;5050141;28;20273;-74
2022/12/03 10:35:18;;;;;;;68.63;58.83;;;;;;;3.93;100.00;100337.25;5052549;28;20202;-75
2022/12/03 10:38:01;;;;;;;43.47;37.83;;;;;;;4.00;100.00;100325.44;5056047;28;20665;-73
2022/12/03 10:40:32;;;;;;;45.27;36.00;;;;;;;4.03;100.00;100323.78;5055434;28;20205;-75
2022/12/03 10:43:12;;;;;;;36.50;30.57;;;;;;;4.04;100.00;100314.38;5069130;28;22682;-74
2022/12/03 10:45:38;;;;;;;36.90;29.70;;;;;;;4.02;100.00;100327.16;5055112;28;20272;-75
2022/12/03 10:48:10;;;;;;;36.33;29.10;;;;;;;4.01;100.00;100312.63;5052865;28;20186;-73
2022/12/03 10:50:36;;;;;;;39.07;30.53;;;;;;;4.01;100.00;100311.78;5052674;28;20284;-74
2022/12/03 10:53:01;;;;;;;39.47;33.73;;;;;;;4.00;100.00;100310.06;5040574;28;20177;-74
2022/12/03 10:55:37;;;;;;;34.47;28.70;;;;;;;3.97;100.00;100314.28;5053198;28;20187;-75
2022/12/03 10:58:02;;;;;;;35.73;28.03;;;;;;;3.97;100.00;100300.59;5055448;28;20978;-74
2022/12/03 11:00:27;;;;;;;40.53;32.50;;;;;;;3.99;100.00;100290.41;5057645;28;20206;-74
2022/12/03 11:02:53;;;;;;;34.73;27.90;;;;;;;4.05;100.00;100277.69;5037510;28;20218;-74
2022/12/03 11:05:22;;;;;;;37.20;30.43;;;;;;;4.11;100.00;100275.25;5035790;28;20206;-74
2022/12/03 11:07:48;;;;;;;34.20;27.20;;;;;;;4.11;100.00;100280.38;5052760;28;20186;-76
2022/12/03 11:10:16;;;;;;;33.33;28.57;;;;;;;4.12;100.00;100285.50;5053661;28;21561;-74
2022/12/03 11:13:20;;;;;;;37.70;29.30;;;;;;;4.14;100.00;100275.31;5056749;28;20188;-74
2022/12/03 11:15:46;;;;;;;45.37;36.97;;;;;;;4.15;100.00;100273.59;5053324;28;20552;-75
2022/12/03 11:18:37;;;;;;;35.80;29.77;;;;;;;4.09;100.00;100267.53;5058972;28;20192;-76
2022/12/03 11:21:12;;;;;;;34.67;28.53;;;;;;;4.12;100.00;100277.81;5055735;28;20699;-76
2022/12/03 11:23:44;;;;;;;35.63;27.70;;;;;;;4.18;100.00;100260.84;5063449;28;20202;-75
2022/12/03 11:26:35;;;;;;;37.70;28.03;;;;;;;4.25;100.00;100270.34;5060980;28;20178;-73
2022/12/03 11:29:00;;;;;;;34.53;27.90;;;;;;;4.29;100.00;100267.00;5053687;28;20201;-76
2022/12/03 11:31:39;;;;;;;32.97;27.53;;;;;;;4.25;100.00;100263.53;5060320;28;20228;-77